Youngstown, Missouri
Current Conditions -  °F | °C
As of 4:55 PM on Thursday 27 Nov 2014 (Local Time) from KIRK Reporting Station
Overcast Overcast  
Wind Chill: 14°   Ceiling: 6500
Heat Index: 22°   Visibility: 10mi
Dew Point: 14°   Wind: 6mph
Humidity: 72%   Direction: 50°NE
Pressure: 30.44"   Gusts: NA
Location:  40.2969°N, 92.7524°W
Report Text: KIRK 272255Z AUTO 05005KT 10SM OVC065 M06/M10 A3044 RMK AO2 SLP326 T10561100
Loading
Personal Weather Stations






























Interactive Weather Map New forecast layout! Learn more

10-Day Weather Forecast

Advertisements
Track Severe Weather on mobile